Time;durP1;ratioP1;P1;durP2;ratioP2;P2;SDS_P1;SDS_P2;PMS_P1;PMS_P2;Temp;Humidity;BMP_temperature;BMP_pressure;BME280_temperature;BME280_humidity;BME280_pressure;Samples;Min_cycle;Max_cycle;Signal;HPM_P1;HPM_P2
2022/01/23 00:02:27;;;;;;;35.70;25.17;;;3.00;99.90;;;3.87;100.00;99552.88;5141215;28;20218;-64
2022/01/23 00:05:05;;;;;;;36.60;24.77;;;3.00;99.90;;;3.88;100.00;99551.25;5143507;28;20232;-63
2022/01/23 00:07:39;;;;;;;30.00;21.83;;;3.00;99.90;;;3.86;100.00;99557.75;5142827;28;20223;-63
2022/01/23 00:10:13;;;;;;;29.63;22.47;;;3.10;99.90;;;3.85;100.00;99556.88;5139612;28;20231;-63
2022/01/23 00:12:50;;;;;;;34.10;23.07;;;3.10;99.90;;;3.88;100.00;99553.78;5144139;28;20603;-64
2022/01/23 00:18:15;;;;;;;35.47;23.87;;;3.10;99.90;;;3.83;100.00;99558.31;5142565;28;20227;-63
2022/01/23 00:20:48;;;;;;;32.50;23.30;;;3.10;99.90;;;3.82;100.00;99551.47;5140297;28;20604;-64
2022/01/23 00:23:31;;;;;;;37.37;25.33;;;3.10;99.90;;;3.80;100.00;99555.44;5143067;28;20588;-64
2022/01/23 00:31:47;;;;;;;39.10;25.70;;;3.00;99.90;;;3.75;100.00;99541.38;5145541;28;20756;-62
2022/01/23 00:34:20;;;;;;;38.83;25.50;;;3.10;99.90;;;3.73;100.00;99542.88;5147486;28;20565;-61
2022/01/23 00:36:53;;;;;;;39.07;26.63;;;3.00;99.90;;;3.74;100.00;99547.19;5146971;28;20227;-63
2022/01/23 00:39:26;;;;;;;34.30;24.87;;;3.00;99.90;;;3.77;100.00;99548.41;5147366;28;20230;-64
2022/01/23 00:41:59;;;;;;;36.17;24.90;;;3.10;99.90;;;3.80;100.00;99543.69;5147239;28;20215;-63
2022/01/23 00:44:35;;;;;;;33.10;24.40;;;3.10;99.90;;;3.83;100.00;99540.59;5146768;28;20266;-64
2022/01/23 00:47:12;;;;;;;35.67;24.67;;;3.10;99.90;;;3.84;100.00;99547.50;5145960;28;20219;-63
2022/01/23 00:49:45;;;;;;;36.57;23.90;;;3.10;99.90;;;3.86;100.00;99540.94;5147141;28;20231;-63
2022/01/23 00:52:18;;;;;;;32.53;23.23;;;3.10;99.90;;;3.81;100.00;99547.16;5146264;28;20257;-64
2022/01/23 00:54:51;;;;;;;32.60;23.30;;;3.10;99.90;;;3.81;100.00;99532.88;5147276;28;20231;-63
2022/01/23 00:57:24;;;;;;;32.30;22.63;;;3.10;99.90;;;3.83;100.00;99541.53;5146293;28;20228;-64
2022/01/23 00:59:57;;;;;;;39.70;24.57;;;3.10;99.90;;;3.79;100.00;99538.50;5146851;28;20222;-64
2022/01/23 01:02:32;;;;;;;30.40;21.70;;;3.00;99.90;;;3.78;100.00;99536.69;5144732;28;20224;-63
2022/01/23 01:05:06;;;;;;;33.03;22.83;;;3.10;99.90;;;3.80;100.00;99546.22;5144972;28;20282;-63
2022/01/23 01:07:39;;;;;;;33.77;23.10;;;3.10;99.90;;;3.80;100.00;99535.22;5152236;28;20223;-64
2022/01/23 01:10:19;;;;;;;32.97;22.67;;;3.10;99.90;;;3.82;100.00;99533.75;5143110;28;20231;-64
2022/01/23 01:12:57;;;;;;;36.87;24.33;;;3.10;99.90;;;3.75;100.00;99539.78;5146660;28;20223;-63
2022/01/23 01:15:40;;;;;;;44.20;25.50;;;3.00;99.90;;;3.79;100.00;99534.31;5146389;28;20231;-64
2022/01/23 01:32:43;;;;;;;36.63;24.50;;;3.00;99.90;;;3.92;100.00;99513.81;5143564;28;20224;-63
2022/01/23 01:35:23;;;;;;;39.33;24.97;;;3.00;99.90;;;3.82;100.00;99528.72;5141831;28;20695;-63
2022/01/23 01:37:57;;;;;;;38.10;25.93;;;3.00;99.90;;;3.71;100.00;99539.25;5142948;28;20222;-64
2022/01/23 01:40:31;;;;;;;35.77;24.83;;;2.90;99.90;;;3.70;100.00;99533.31;5145458;28;20219;-64
2022/01/23 01:43:05;;;;;;;41.10;24.93;;;3.00;99.90;;;3.67;100.00;99527.03;5146077;28;20309;-63
2022/01/23 01:45:40;;;;;;;37.83;24.43;;;2.90;99.90;;;3.69;100.00;99528.06;5145344;28;20235;-64
2022/01/23 01:48:16;;;;;;;38.60;24.67;;;2.90;99.90;;;3.71;100.00;99529.16;5144353;28;20331;-64
2022/01/23 01:50:52;;;;;;;33.17;23.63;;;2.90;99.90;;;3.67;100.00;99534.63;5138317;28;20234;-64
2022/01/23 01:53:25;;;;;;;34.97;22.87;;;2.90;99.90;;;3.66;100.00;99535.31;5143203;28;20226;-64
2022/01/23 01:55:58;;;;;;;34.83;22.47;;;2.90;99.90;;;3.66;100.00;99533.69;5145708;28;20226;-64
2022/01/23 01:59:07;;;;;;;34.37;23.03;;;2.90;99.90;;;3.71;100.00;99534.22;5144348;28;20257;-64
2022/01/23 02:10:12;;;;;;;31.03;21.13;;;3.00;99.90;;;3.77;100.00;99534.88;5145504;28;20223;-64
2022/01/23 02:53:29;;;;;;;32.07;21.83;;;2.90;99.90;;;3.79;100.00;99503.97;5143574;28;20245;-64
2022/01/23 02:56:07;;;;;;;28.03;21.33;;;2.90;99.90;;;3.81;100.00;99517.69;5144586;28;20326;-64
2022/01/23 02:58:55;;;;;;;37.97;23.03;;;2.90;99.90;;;3.80;100.00;99502.34;5144291;28;20230;-64
2022/01/23 03:01:31;;;;;;;31.73;21.40;;;3.00;99.90;;;3.75;100.00;99499.34;5143503;28;20220;-63
2022/01/23 03:04:09;;;;;;;34.43;22.33;;;3.00;99.90;;;3.79;100.00;99503.09;5139512;28;20224;-64
2022/01/23 03:06:55;;;;;;;32.57;22.37;;;2.90;99.90;;;3.83;100.00;99492.56;5143823;28;20709;-65
2022/01/23 03:13:20;;;;;;;31.63;21.17;;;2.90;99.90;;;3.83;100.00;99515.31;5142996;28;20238;-64
2022/01/23 03:15:29;;;;;;;35.77;22.93;;;2.90;99.90;;;3.72;100.00;99521.75;5141073;28;20220;-64
2022/01/23 03:26:48;;;;;;;31.83;21.20;;;2.90;99.90;;;3.67;100.00;99542.19;5144628;28;20321;-63
2022/01/23 03:29:24;;;;;;;38.90;22.80;;;3.00;99.90;;;3.72;100.00;99541.06;5143747;28;20603;-64
2022/01/23 03:32:18;;;;;;;34.83;22.63;;;2.90;99.90;;;3.71;100.00;99539.25;5140191;28;20234;-64
2022/01/23 03:34:51;;;;;;;31.07;21.83;;;2.90;99.90;;;3.72;100.00;99536.00;5146414;28;20227;-64
2022/01/23 03:37:24;;;;;;;36.67;21.07;;;3.00;99.90;;;3.73;100.00;99537.81;5151785;28;20234;-64
2022/01/23 03:39:57;;;;;;;31.23;22.53;;;3.00;99.90;;;3.76;100.00;99538.16;5144077;28;20596;-64
2022/01/23 03:42:33;;;;;;;33.40;21.67;;;3.00;99.90;;;3.75;100.00;99536.34;5142875;28;20220;-64
2022/01/23 03:45:29;;;;;;;33.03;21.27;;;3.00;99.90;;;3.79;100.00;99533.44;5144869;28;20229;-64
2022/01/23 03:49:31;;;;;;;31.90;21.13;;;3.00;99.90;;;3.78;100.00;99536.69;5142803;28;20268;-63
2022/01/23 03:50:55;;;;;;;37.83;22.73;;;3.00;99.90;;;3.81;100.00;99544.63;5139257;28;20702;-63
2022/01/23 03:53:28;;;;;;;37.30;23.03;;;3.00;99.90;;;3.79;100.00;99546.97;5143244;28;20221;-63
2022/01/23 03:56:01;;;;;;;41.50;23.67;;;3.00;99.90;;;3.76;100.00;99548.25;5140550;28;20239;-63
2022/01/23 03:58:35;;;;;;;40.93;22.63;;;3.00;99.90;;;3.74;100.00;99545.56;5143433;28;20224;-63
2022/01/23 04:01:09;;;;;;;32.27;21.67;;;3.00;99.90;;;3.73;100.00;99558.94;5142307;28;20224;-63
2022/01/23 04:03:42;;;;;;;37.63;22.50;;;3.00;99.90;;;3.75;100.00;99551.50;5141403;28;20706;-62
2022/01/23 04:06:15;;;;;;;35.00;23.03;;;3.00;99.90;;;3.80;100.00;99550.38;5144258;28;20232;-64
2022/01/23 04:08:49;;;;;;;33.70;22.80;;;3.00;99.90;;;3.82;100.00;99546.41;5141733;28;20237;-63
2022/01/23 04:11:23;;;;;;;33.50;21.73;;;3.00;99.90;;;3.80;100.00;99533.59;5143230;28;20234;-63
2022/01/23 04:14:01;;;;;;;34.33;22.30;;;3.00;99.90;;;3.83;100.00;99530.50;5143342;28;20224;-63
2022/01/23 04:17:02;;;;;;;31.30;22.27;;;3.00;99.90;;;3.87;100.00;99530.13;5142818;28;20218;-63
2022/01/23 04:19:42;;;;;;;35.87;22.67;;;3.00;99.90;;;3.88;100.00;99544.56;5142906;28;20224;-63
2022/01/23 04:33:48;;;;;;;32.47;19.90;;;3.00;99.90;;;3.82;100.00;99528.72;5142448;28;20216;-64
2022/01/23 04:45:19;;;;;;;34.10;22.33;;;2.90;99.90;;;3.71;100.00;99524.09;5141754;28;20227;-64
2022/01/23 04:59:41;;;;;;;27.17;17.90;;;3.00;99.90;;;3.72;100.00;99528.41;5162189;28;20222;-62
2022/01/23 05:02:37;;;;;;;29.33;18.93;;;3.00;99.90;;;3.79;100.00;99531.78;5145312;28;20226;-62
2022/01/23 05:05:09;;;;;;;30.03;19.73;;;2.90;99.90;;;3.86;100.00;99524.88;5144185;28;20224;-61
2022/01/23 05:07:46;;;;;;;26.27;19.83;;;2.90;99.90;;;3.89;100.00;99521.03;5145495;28;20269;-62
2022/01/23 05:10:20;;;;;;;27.63;19.53;;;2.90;99.90;;;3.85;100.00;99523.97;5145137;28;20226;-62
2022/01/23 05:12:53;;;;;;;32.30;20.83;;;2.90;99.90;;;3.87;100.00;99541.88;5152266;28;20590;-61
2022/01/23 05:15:26;;;;;;;35.77;20.83;;;2.90;99.90;;;3.69;100.00;99539.13;5146827;28;20726;-62
2022/01/23 05:17:59;;;;;;;31.67;20.83;;;2.90;99.90;;;3.63;100.00;99535.00;5149023;28;20293;-61
2022/01/23 05:20:33;;;;;;;35.03;20.93;;;2.90;99.90;;;3.65;100.00;99541.13;5147973;28;20249;-62
2022/01/23 05:23:07;;;;;;;32.33;20.27;;;3.00;99.90;;;3.65;100.00;99536.06;5149547;28;20226;-62
2022/01/23 05:25:42;;;;;;;31.30;20.77;;;3.00;99.90;;;3.66;100.00;99537.84;5147808;28;20218;-62
2022/01/23 05:28:15;;;;;;;30.43;20.50;;;2.90;99.90;;;3.68;100.00;99537.28;5148298;28;20229;-61
2022/01/23 05:30:48;;;;;;;32.57;20.53;;;2.90;99.90;;;3.70;100.00;99542.53;5146569;28;20748;-62
2022/01/23 05:33:21;;;;;;;33.63;21.07;;;3.00;99.90;;;3.72;100.00;99536.00;5148057;28;20286;-62
2022/01/23 05:35:54;;;;;;;28.60;19.43;;;3.00;99.90;;;3.71;100.00;99535.09;5146450;28;20231;-62
2022/01/23 05:38:29;;;;;;;30.67;20.77;;;3.00;99.90;;;3.75;100.00;99539.78;5149838;28;20224;-62
2022/01/23 05:41:02;;;;;;;32.40;20.87;;;3.00;99.90;;;3.73;100.00;99546.28;5146885;28;20956;-62
2022/01/23 05:43:35;;;;;;;32.07;20.60;;;3.00;99.90;;;3.71;100.00;99540.16;5149734;28;20220;-62
2022/01/23 05:46:08;;;;;;;30.37;20.10;;;3.00;99.90;;;3.76;100.00;99540.69;5150038;28;20286;-61
2022/01/23 05:48:41;;;;;;;37.17;21.83;;;3.00;99.90;;;3.74;100.00;99547.19;5149358;28;20223;-62
2022/01/23 05:51:14;;;;;;;33.07;21.27;;;2.90;99.90;;;3.78;100.00;99549.34;5145199;28;20241;-62
2022/01/23 05:53:49;;;;;;;36.17;21.73;;;2.90;99.90;;;3.85;100.00;99561.91;5140660;28;20234;-61
2022/01/23 05:56:22;;;;;;;36.07;21.47;;;2.90;99.90;;;3.87;100.00;99554.50;5145448;28;20235;-62
2022/01/23 05:58:55;;;;;;;43.83;23.53;;;3.00;99.90;;;3.87;100.00;99565.53;5150281;28;20315;-62
2022/01/23 06:01:28;;;;;;;36.67;21.60;;;3.00;99.90;;;3.84;100.00;99567.72;5141878;28;20229;-62
2022/01/23 06:04:01;;;;;;;30.13;20.43;;;3.00;99.90;;;3.84;100.00;99570.25;5148958;28;20317;-62
2022/01/23 06:06:34;;;;;;;29.60;20.17;;;3.00;99.90;;;3.84;100.00;99568.63;5145819;28;20247;-62
2022/01/23 06:09:08;;;;;;;30.00;20.23;;;3.10;99.90;;;3.84;100.00;99575.31;5148049;28;20259;-62
2022/01/23 06:11:41;;;;;;;30.77;21.17;;;3.00;99.90;;;3.86;100.00;99571.28;5148422;28;20231;-62
2022/01/23 06:14:14;;;;;;;29.70;18.90;;;3.00;99.90;;;3.86;100.00;99580.50;5148434;28;20241;-62
2022/01/23 06:16:49;;;;;;;31.47;19.80;;;3.00;99.90;;;3.87;100.00;99580.69;5140785;28;20245;-62
2022/01/23 06:19:22;;;;;;;39.43;24.07;;;3.10;99.90;;;3.84;100.00;99583.78;5148138;28;20338;-62
2022/01/23 06:21:55;;;;;;;38.37;21.40;;;3.00;99.90;;;3.88;100.00;99579.97;5146705;28;20230;-61
2022/01/23 06:24:31;;;;;;;43.10;23.87;;;3.00;99.90;;;3.82;100.00;99584.34;5158157;28;20238;-62
2022/01/23 06:27:05;;;;;;;44.50;23.73;;;3.00;99.90;;;3.84;100.00;99578.72;5148117;28;20227;-61
2022/01/23 06:29:38;;;;;;;47.20;24.37;;;3.00;99.90;;;3.77;100.00;99583.81;5147525;28;20714;-62
2022/01/23 06:32:12;;;;;;;44.90;24.80;;;3.00;99.90;;;3.77;100.00;99582.94;5146290;28;20702;-61
2022/01/23 06:34:45;;;;;;;48.53;23.87;;;3.00;99.90;;;3.75;100.00;99589.44;5145758;28;20843;-62
2022/01/23 06:37:18;;;;;;;46.40;25.30;;;2.90;99.90;;;3.81;100.00;99587.63;5144312;28;20307;-60
2022/01/23 06:39:53;;;;;;;57.80;26.70;;;2.90;99.90;;;3.80;100.00;99593.38;5145835;28;20304;-62
2022/01/23 06:42:26;;;;;;;48.17;25.40;;;2.90;99.90;;;3.70;100.00;99583.00;5144454;28;20222;-62
2022/01/23 06:44:59;;;;;;;48.50;26.70;;;2.90;99.90;;;3.79;100.00;99589.06;5146476;28;20230;-62
2022/01/23 06:47:32;;;;;;;53.40;27.60;;;2.90;99.90;;;3.72;100.00;99582.44;5145740;28;20701;-62
2022/01/23 06:50:06;;;;;;;54.97;28.37;;;2.90;99.90;;;3.70;100.00;99588.06;5145182;28;20699;-62
2022/01/23 06:52:39;;;;;;;48.93;25.10;;;2.90;99.90;;;3.70;100.00;99590.56;5150499;28;20234;-62
2022/01/23 06:55:16;;;;;;;49.27;27.57;;;2.90;99.90;;;3.75;100.00;99597.94;5145890;28;20682;-62
2022/01/23 06:57:49;;;;;;;51.47;26.97;;;2.90;99.90;;;3.74;100.00;99600.28;5139275;28;20219;-61
2022/01/23 07:00:22;;;;;;;58.93;28.97;;;2.80;99.90;;;3.69;100.00;99592.22;5142757;28;20315;-62
2022/01/23 07:02:55;;;;;;;59.37;28.53;;;2.90;99.90;;;3.75;100.00;99602.06;5145449;28;20247;-62
2022/01/23 07:05:28;;;;;;;61.40;28.10;;;2.90;99.90;;;3.75;100.00;99610.59;5144176;28;20764;-62
2022/01/23 07:08:02;;;;;;;50.83;28.50;;;2.90;99.90;;;3.79;100.00;99627.00;5145243;28;20822;-62
2022/01/23 07:10:36;;;;;;;47.77;26.47;;;2.90;99.90;;;3.76;100.00;99629.19;5144676;28;20772;-62
2022/01/23 07:13:09;;;;;;;53.60;27.23;;;2.90;99.90;;;3.77;100.00;99626.81;5144451;28;20227;-62
2022/01/23 07:15:42;;;;;;;56.03;28.47;;;2.90;99.90;;;3.79;100.00;99629.53;5143989;28;20247;-61
2022/01/23 07:18:16;;;;;;;56.17;27.93;;;2.90;99.90;;;3.77;100.00;99629.34;5145188;28;20221;-62
2022/01/23 07:20:49;;;;;;;62.63;30.57;;;2.90;99.90;;;3.77;100.00;99616.69;5144589;28;20227;-62
2022/01/23 07:23:23;;;;;;;54.03;29.83;;;2.90;99.90;;;3.80;100.00;99623.72;5146558;28;20216;-63
2022/01/23 07:25:58;;;;;;;57.23;29.87;;;2.90;99.90;;;3.80;100.00;99631.31;5143673;28;20702;-64
2022/01/23 07:28:39;;;;;;;58.30;28.93;;;2.90;99.90;;;3.81;100.00;99635.66;5145463;28;20508;-62
2022/01/23 07:31:20;;;;;;;56.67;28.87;;;2.90;99.90;;;3.79;100.00;99634.59;5143928;28;20223;-62
2022/01/23 07:33:53;;;;;;;72.93;29.73;;;3.00;99.90;;;3.78;100.00;99632.78;5141054;28;20258;-63
2022/01/23 07:36:26;;;;;;;65.33;30.13;;;3.00;99.90;;;3.70;100.00;99647.09;5140309;28;20238;-62
2022/01/23 07:38:59;;;;;;;60.17;29.43;;;2.90;99.90;;;3.59;100.00;99645.88;5141989;28;20234;-61
2022/01/23 07:41:34;;;;;;;61.17;28.67;;;2.80;99.90;;;3.67;100.00;99653.44;5141818;28;20294;-63
2022/01/23 07:44:08;;;;;;;55.40;28.17;;;2.90;99.90;;;3.71;100.00;99648.00;5142871;28;20219;-63
2022/01/23 07:46:41;;;;;;;63.97;28.90;;;2.90;99.90;;;3.77;100.00;99656.25;5139197;28;20223;-62
2022/01/23 07:49:14;;;;;;;56.07;29.70;;;3.00;99.90;;;3.83;100.00;99662.00;5138192;28;20226;-62
2022/01/23 07:51:47;;;;;;;54.17;28.50;;;3.00;99.90;;;3.86;100.00;99656.38;5141753;28;20234;-62
2022/01/23 07:54:22;;;;;;;69.03;32.43;;;3.00;99.90;;;3.87;100.00;99668.31;5146133;28;20230;-62
2022/01/23 07:56:56;;;;;;;67.80;31.87;;;3.00;99.90;;;3.84;100.00;99663.81;5138110;28;20317;-61
2022/01/23 07:59:30;;;;;;;60.23;33.13;;;3.00;99.90;;;3.85;100.00;99670.66;5143401;28;20222;-62
2022/01/23 08:02:04;;;;;;;69.87;33.87;;;3.00;99.90;;;3.87;100.00;99666.69;5139334;28;20231;-63
2022/01/23 08:04:37;;;;;;;59.53;29.77;;;3.00;99.90;;;3.90;100.00;99664.50;5142072;28;20236;-63
2022/01/23 08:07:13;;;;;;;88.00;41.40;;;3.00;99.90;;;3.91;100.00;99661.22;5141405;28;20231;-63
2022/01/23 08:09:46;;;;;;;80.60;45.67;;;3.10;99.90;;;3.95;100.00;99667.53;5138139;28;20227;-62
2022/01/23 08:12:21;;;;;;;66.93;37.73;;;3.10;99.90;;;3.96;100.00;99667.72;5143486;28;20219;-62
2022/01/23 08:14:55;;;;;;;68.53;34.80;;;3.10;99.90;;;4.00;100.00;99667.31;5139714;28;20231;-62
2022/01/23 08:17:28;;;;;;;64.87;31.60;;;3.10;99.90;;;4.05;100.00;99660.25;5138745;28;20891;-63
2022/01/23 08:20:04;;;;;;;68.30;32.57;;;3.10;99.90;;;4.07;100.00;99664.75;5144414;28;20227;-64
2022/01/23 08:22:37;;;;;;;57.60;31.17;;;3.20;99.90;;;4.10;100.00;99663.31;5142160;28;20565;-65
2022/01/23 08:25:10;;;;;;;66.43;34.53;;;3.20;99.90;;;4.07;100.00;99667.28;5141847;28;20258;-64
2022/01/23 08:27:45;;;;;;;61.80;31.83;;;3.20;99.90;;;4.04;100.00;99674.53;5143012;28;20231;-64
2022/01/23 08:30:18;;;;;;;70.57;33.17;;;3.10;99.90;;;4.06;100.00;99678.16;5141888;28;20222;-63
2022/01/23 08:32:51;;;;;;;70.47;34.10;;;3.20;99.90;;;4.10;100.00;99683.53;5141913;28;20230;-64
2022/01/23 08:35:26;;;;;;;61.60;31.23;;;3.20;99.90;;;4.12;100.00;99677.00;5141872;28;20234;-63
2022/01/23 08:37:59;;;;;;;66.93;33.83;;;3.30;99.90;;;4.16;100.00;99681.69;5143403;28;20227;-63
2022/01/23 08:40:47;;;;;;;63.57;30.57;;;3.30;99.90;;;4.20;100.00;99672.06;5142095;28;20407;-63
2022/01/23 08:43:24;;;;;;;72.33;34.07;;;3.30;99.90;;;4.23;100.00;99674.03;5143684;28;20223;-62
2022/01/23 08:45:57;;;;;;;65.83;33.17;;;3.40;99.90;;;4.28;100.00;99676.34;5141391;28;20707;-63
2022/01/23 08:48:30;;;;;;;75.03;37.03;;;3.40;99.90;;;4.28;100.00;99671.28;5143701;28;20691;-62
2022/01/23 08:51:04;;;;;;;68.37;33.03;;;3.40;99.90;;;4.31;100.00;99677.41;5142767;28;20234;-63
2022/01/23 08:53:37;;;;;;;64.97;31.57;;;3.40;99.90;;;4.35;100.00;99680.47;5143743;28;20600;-63
2022/01/23 08:56:10;;;;;;;72.20;34.17;;;3.50;99.90;;;4.39;100.00;99667.41;5146424;28;20325;-62
2022/01/23 08:58:44;;;;;;;78.30;34.43;;;3.50;99.90;;;4.38;100.00;99680.81;5144787;28;20231;-62
2022/01/23 09:01:18;;;;;;;57.93;31.33;;;3.40;99.90;;;4.34;100.00;99683.72;5149120;28;20219;-62
2022/01/23 09:03:51;;;;;;;58.03;30.23;;;3.40;99.90;;;4.35;100.00;99666.88;5146614;28;20220;-62
2022/01/23 09:06:26;;;;;;;74.07;34.27;;;3.50;99.90;;;4.39;100.00;99667.41;5143833;28;20220;-64
2022/01/23 09:09:00;;;;;;;66.67;33.70;;;3.50;99.90;;;4.45;100.00;99667.19;5145449;28;20224;-62
2022/01/23 09:11:41;;;;;;;65.47;34.03;;;3.50;99.90;;;4.49;100.00;99672.78;5147892;28;20254;-63
2022/01/23 09:14:17;;;;;;;64.53;32.53;;;3.60;99.90;;;4.59;100.00;99664.53;5153125;28;20223;-62
2022/01/23 09:16:52;;;;;;;71.00;34.40;;;3.70;99.90;;;4.63;100.00;99670.81;5146733;28;20241;-62
2022/01/23 09:19:27;;;;;;;65.17;32.87;;;3.70;99.90;;;4.58;100.00;99671.94;5143623;28;20601;-62
2022/01/23 09:22:01;;;;;;;52.70;28.00;;;3.70;99.90;;;4.54;100.00;99675.78;5146054;28;20224;-63
2022/01/23 09:24:34;;;;;;;51.47;28.20;;;3.60;99.90;;;4.58;100.00;99664.34;5147925;28;20242;-62
2022/01/23 09:27:13;;;;;;;55.30;28.90;;;3.60;99.90;;;4.66;100.00;99671.16;5145454;28;20228;-62
2022/01/23 09:29:52;;;;;;;49.17;27.07;;;3.70;99.90;;;4.69;100.00;99661.34;5151207;28;20311;-63
2022/01/23 09:32:25;;;;;;;50.53;26.63;;;3.80;99.90;;;4.69;100.00;99663.88;5145695;28;20227;-63
2022/01/23 09:34:59;;;;;;;51.23;27.63;;;3.70;99.90;;;4.62;100.00;99661.44;5141906;28;20707;-63
2022/01/23 09:37:32;;;;;;;48.17;27.93;;;3.70;99.90;;;4.59;100.00;99659.47;5145999;28;20594;-62
2022/01/23 09:40:08;;;;;;;45.80;26.73;;;3.60;99.90;;;4.53;100.00;99665.50;5141149;28;20234;-62
2022/01/23 09:42:52;;;;;;;40.93;25.07;;;3.60;99.90;;;4.76;100.00;99663.84;5142917;28;20216;-62
2022/01/23 09:45:27;;;;;;;36.83;20.90;;;3.70;99.90;;;4.81;100.00;99666.84;5144310;28;20642;-63
2022/01/23 09:48:03;;;;;;;40.07;23.00;;;3.70;99.90;;;4.87;100.00;99667.53;5145860;28;20235;-61
2022/01/23 09:50:36;;;;;;;43.17;23.53;;;3.80;99.90;;;4.97;100.00;99673.75;5146582;28;20259;-61
2022/01/23 09:53:10;;;;;;;41.23;25.50;;;3.90;99.90;;;5.05;100.00;99669.50;5150385;28;20232;-62
2022/01/23 09:55:46;;;;;;;42.73;25.20;;;3.90;99.90;;;5.09;100.00;99676.69;5145592;28;20234;-61
2022/01/23 09:58:20;;;;;;;44.10;26.63;;;3.90;99.90;;;5.14;100.00;99678.09;5146467;28;20234;-62
2022/01/23 10:00:54;;;;;;;44.50;26.93;;;3.90;99.90;;;5.16;100.00;99673.22;5141621;28;20226;-63
2022/01/23 10:03:27;;;;;;;41.67;24.90;;;4.00;99.90;;;5.18;100.00;99680.25;5142235;28;20262;-61
2022/01/23 10:06:02;;;;;;;40.97;24.60;;;4.00;99.90;;;5.20;100.00;99677.84;5144614;28;20255;-62
2022/01/23 10:08:37;;;;;;;40.77;25.00;;;4.00;99.90;;;5.31;100.00;99676.47;5146135;28;20298;-62
2022/01/23 10:11:12;;;;;;;41.83;24.70;;;4.00;99.90;;;5.34;100.00;99692.00;5147364;28;20227;-61
2022/01/23 10:13:45;;;;;;;35.47;23.37;;;4.00;99.90;;;5.36;100.00;99682.94;5141061;28;20219;-62
2022/01/23 10:16:20;;;;;;;34.20;21.70;;;4.00;99.90;;;5.34;100.00;99687.84;5139016;28;20254;-61
2022/01/23 10:18:56;;;;;;;35.17;22.47;;;4.10;99.90;;;5.36;100.00;99680.41;5137681;28;20226;-62
2022/01/23 10:21:31;;;;;;;33.97;21.67;;;4.20;99.90;;;5.36;100.00;99673.69;5146857;28;20314;-63
2022/01/23 10:24:04;;;;;;;33.53;21.33;;;4.20;99.90;;;5.38;100.00;99678.94;5144719;28;20215;-62
2022/01/23 10:26:43;;;;;;;29.93;19.47;;;4.20;99.90;;;5.46;100.00;99665.41;5154629;28;20220;-62
2022/01/23 10:29:19;;;;;;;29.27;19.87;;;4.20;99.90;;;5.50;100.00;99672.63;5143344;28;20227;-62
2022/01/23 10:32:14;;;;;;;29.20;19.23;;;4.20;99.90;;;5.59;100.00;99678.66;5144224;28;20253;-62
2022/01/23 10:34:51;;;;;;;24.63;17.93;;;4.30;99.90;;;5.50;100.00;99671.75;5142419;28;20226;-61
2022/01/23 10:37:34;;;;;;;23.37;17.40;;;4.20;99.90;;;5.43;100.00;99671.06;5141857;28;20699;-62
2022/01/23 10:40:29;;;;;;;27.73;19.10;;;4.30;99.90;;;5.51;100.00;99684.56;5136276;28;20311;-62
2022/01/23 10:48:46;;;;;;;31.10;21.47;;;4.30;99.90;;;5.54;100.00;99666.25;5140296;28;20671;-61
2022/01/23 10:51:31;;;;;;;31.63;21.80;;;4.30;99.90;;;5.60;100.00;99659.28;5137433;28;20743;-62
2022/01/23 10:54:13;;;;;;;32.23;22.17;;;4.40;99.90;;;5.71;100.00;99657.88;5131111;28;20233;-63
2022/01/23 10:57:04;;;;;;;32.47;22.27;;;4.40;99.90;;;5.77;100.00;99643.28;5135592;28;20495;-62
2022/01/23 10:59:43;;;;;;;31.80;23.67;;;4.50;99.90;;;5.77;100.00;99645.81;5133073;28;20220;-61
2022/01/23 11:02:21;;;;;;;29.53;22.07;;;4.50;99.90;;;5.71;100.00;99643.53;5142488;28;20228;-61
2022/01/23 11:05:00;;;;;;;30.53;22.60;;;4.40;99.90;;;5.60;100.00;99651.66;5127696;28;20507;-64
2022/01/23 11:07:35;;;;;;;31.50;23.20;;;4.40;99.90;;;5.68;100.00;99637.25;5135926;28;20601;-61
2022/01/23 11:10:12;;;;;;;31.77;22.10;;;4.40;99.90;;;5.84;100.00;99635.59;5144335;28;20699;-63
2022/01/23 11:18:44;;;;;;;28.00;18.90;;;4.50;99.90;;;5.87;100.00;99641.88;5142657;28;20220;-60
2022/01/23 11:21:21;;;;;;;28.13;20.40;;;4.60;99.90;;;5.94;100.00;99638.34;5140457;28;20220;-62
2022/01/23 11:24:15;;;;;;;27.00;19.00;;;4.60;99.90;;;5.91;100.00;99638.00;5137863;28;20731;-62
2022/01/23 11:26:49;;;;;;;24.73;18.37;;;4.60;99.90;;;5.99;100.00;99636.31;5141452;28;20227;-63
2022/01/23 11:29:22;;;;;;;27.17;19.50;;;4.50;99.90;;;5.91;100.00;99632.03;5141883;28;20235;-62
2022/01/23 11:31:55;;;;;;;26.40;19.03;;;4.40;99.90;;;5.88;100.00;99632.63;5140407;28;20227;-62
2022/01/23 11:34:30;;;;;;;22.60;17.70;;;4.60;99.90;;;5.95;100.00;99621.50;5137923;28;20219;-62
2022/01/23 11:37:05;;;;;;;22.83;17.83;;;4.70;99.90;;;5.99;100.00;99624.50;5133389;28;20233;-62
2022/01/23 11:39:46;;;;;;;23.33;17.43;;;4.70;99.90;;;5.99;100.00;99621.97;5139572;28;20306;-62
2022/01/23 11:53:47;;;;;;;23.50;17.83;;;4.80;99.90;;;6.12;100.00;99611.44;5140971;28;20671;-62
2022/01/23 11:56:44;;;;;;;21.43;16.87;;;4.90;99.90;;;6.03;100.00;99613.91;5143053;28;20704;-62
2022/01/23 11:59:24;;;;;;;21.93;15.87;;;4.80;99.90;;;6.04;100.00;99614.84;5133217;28;20226;-61
2022/01/23 12:05:26;;;;;;;20.30;14.70;;;4.70;99.90;;;6.23;98.88;99600.72;5138552;28;20228;-64
2022/01/23 12:08:34;;;;;;;19.13;13.93;;;4.80;99.90;;;6.31;95.80;99607.50;5139078;28;20220;-62
2022/01/23 12:17:43;;;;;;;21.87;15.10;;;5.00;99.90;;;6.34;96.86;99599.28;5139427;28;20220;-63
2022/01/23 12:20:35;;;;;;;18.07;14.73;;;5.00;99.90;;;6.22;94.50;99604.03;5135666;28;20219;-62
2022/01/23 12:23:09;;;;;;;18.27;14.17;;;5.00;99.90;;;6.17;94.67;99602.66;5141707;28;20225;-62
2022/01/23 12:25:45;;;;;;;18.37;15.13;;;5.00;99.90;;;6.22;94.90;99591.34;5137150;28;20350;-62
2022/01/23 12:28:25;;;;;;;17.47;14.50;;;5.10;99.90;;;6.23;96.94;99590.56;5138795;28;20228;-62
2022/01/23 12:31:00;;;;;;;17.73;14.10;;;5.10;99.90;;;6.26;97.41;99590.88;5142325;28;20216;-62
2022/01/23 12:33:48;;;;;;;13.53;12.13;;;5.10;99.90;;;6.27;95.00;99585.09;5140279;28;20227;-62
2022/01/23 12:36:29;;;;;;;15.67;13.33;;;5.10;99.90;;;6.38;95.93;99586.19;5139693;28;20290;-62
2022/01/23 12:39:18;;;;;;;15.30;12.87;;;5.20;99.90;;;6.32;93.47;99583.00;5139753;28;20228;-63
2022/01/23 12:41:59;;;;;;;14.73;11.70;;;5.20;99.90;;;6.32;95.02;99594.06;5138689;28;20222;-62
2022/01/23 12:44:38;;;;;;;16.80;12.50;;;5.20;99.90;;;6.38;90.75;99583.63;5139862;28;20832;-62
2022/01/23 12:47:21;;;;;;;16.17;12.83;;;5.20;99.90;;;6.57;89.27;99585.47;5136132;28;20235;-62
2022/01/23 12:49:55;;;;;;;16.07;13.43;;;5.40;99.90;;;6.45;89.97;99580.06;5135206;28;20238;-62
2022/01/23 12:52:28;;;;;;;16.40;13.87;;;5.40;99.90;;;6.50;93.42;99587.41;5141746;28;20603;-62
2022/01/23 12:55:01;;;;;;;15.70;13.40;;;5.40;99.90;;;6.44;93.60;99578.25;5139966;28;20236;-62
2022/01/23 12:57:39;;;;;;;14.73;12.63;;;5.30;99.90;;;6.45;94.82;99582.59;5141386;28;20315;-62
2022/01/23 13:00:23;;;;;;;13.53;11.60;;;5.40;99.90;;;6.46;93.15;99581.84;5142029;28;20220;-62
2022/01/23 13:02:57;;;;;;;14.37;12.03;;;5.40;99.90;;;6.49;94.22;99587.25;5139613;28;20234;-62
2022/01/23 13:05:30;;;;;;;13.70;10.97;;;5.40;99.90;;;6.46;93.45;99586.94;5143051;28;20251;-62
2022/01/23 13:08:23;;;;;;;12.60;10.80;;;5.40;99.90;;;6.48;95.09;99588.88;5148777;28;20603;-62
2022/01/23 13:11:21;;;;;;;11.27;10.07;;;5.50;99.90;;;6.56;95.98;99583.69;5136685;28;20225;-62
2022/01/23 13:14:01;;;;;;;11.90;9.63;;;5.50;99.90;;;6.54;93.24;99578.44;5135899;28;20231;-62
2022/01/23 13:16:40;;;;;;;10.63;9.47;;;5.50;99.90;;;6.46;92.63;99576.78;5139446;28;20315;-63
2022/01/23 13:19:31;;;;;;;11.43;10.23;;;5.40;99.90;;;6.47;90.80;99578.59;5140389;28;20235;-62
2022/01/23 13:30:48;;;;;;;9.20;7.47;;;5.30;99.90;;;6.43;93.14;99561.22;5133904;28;20226;-62